K-storm — V2DV8 — position and weather

sailwx.info

Track history (hours):
 
Tides and Currents Weather Stations Pressure Air Temp Water Temp Dewpoint Dewpoint Depression Visibility Wind Speed Wind Dir Waves Ship Positions

K-storm

Last reported at 2016-Jul-29 16:24 UTC. Time now 2016-Jul-30 07:18 UTC.
Position N 25°43' W 079°42'.

Length 139 m; draft 6.2 m.

Type: Ship. MMSI: 305350000.

Date/timePositionNaut miles runAvg speedWind from/ knotsBaromVisibWave heightAir tempDewpointWater temp
2016-Jul-29 16:24N 25°43' W 079°42'1113.2
2016-Jul-29 15:33N 25°52' W 079°50'1313.0
2016-Jul-29 14:33N 26°01' W 079°59'7 6.5
2016-Jul-29 13:24N 26°04' W 080°07'0 0.0
2016-Jul-29 12:33N 26°04' W 080°07'0 0.0
2016-Jul-29 11:30N 26°04' W 080°07'0 0.0
2016-Jul-29 10:32N 26°04' W 080°07'0 0.0
2016-Jul-29 09:32N 26°04' W 080°07'0 0.0
2016-Jul-29 08:25N 26°04' W 080°07'0 0.0
2016-Jul-29 07:31N 26°04' W 080°07'0 0.0
2016-Jul-29 06:27N 26°04' W 080°07'0 0.2
2016-Jul-29 05:33N 26°04' W 080°07'0 0.0
2016-Jul-29 04:27N 26°04' W 080°07'0 0.0
2016-Jul-29 03:32N 26°04' W 080°07'0 0.0
2016-Jul-29 02:32N 26°04' W 080°07'0 0.0
2016-Jul-29 01:22N 26°04' W 080°07'0 0.0
2016-Jul-29 00:31N 26°04' W 080°07'0 0.0
2016-Jul-28 23:24N 26°04' W 080°07'0 0.0
2016-Jul-28 22:33N 26°04' W 080°07'0 0.0
2016-Jul-28 21:27N 26°04' W 080°07'0 0.0
2016-Jul-28 20:33N 26°04' W 080°07'0 0.3
2016-Jul-28 19:23N 26°04' W 080°07'0 0.0
2016-Jul-28 18:13N 26°04' W 080°07'0 0.0
2016-Jul-28 17:22N 26°04' W 080°07'0 0.0
2016-Jul-28 16:27N 26°04' W 080°07'0 0.0
2016-Jul-28 15:09N 26°04' W 080°07'0 0.0
2016-Jul-28 14:33N 26°04' W 080°07'0 0.0
2016-Jul-28 13:26N 26°04' W 080°07'0 0.0
2016-Jul-28 12:20N 26°04' W 080°07'0 0.0
2016-Jul-28 11:28N 26°04' W 080°07'0 0.0
2016-Jul-28 10:22N 26°04' W 080°07'0 0.0
2016-Jul-28 09:30N 26°04' W 080°07'0 0.0
2016-Jul-28 08:24N 26°04' W 080°07'0 0.2
2016-Jul-28 07:32N 26°04' W 080°07'0 0.0
2016-Jul-28 06:26N 26°04' W 080°07'0 0.0
2016-Jul-28 05:32N 26°04' W 080°07'0 0.0
2016-Jul-28 04:28N 26°04' W 080°07'0 0.0
2016-Jul-28 03:22N 26°04' W 080°07'0 0.0
2016-Jul-28 02:30N 26°04' W 080°07'0 0.0
2016-Jul-28 01:24N 26°04' W 080°07'0 0.1
2016-Jul-28 00:33N 26°04' W 080°07'5 4.9
2016-Jul-27 23:33N 26°05' W 080°02'9 9.0
2016-Jul-27 22:33N 25°60' W 079°54'1616.3
2016-Jul-27 21:33N 25°47' W 079°43'  
2016-Jul-22 14:24N 25°43' W 079°42'1113.3
2016-Jul-22 13:33N 25°52' W 079°50'1312.8
2016-Jul-22 12:33N 26°01' W 079°59'8 6.5
2016-Jul-22 11:23N 26°04' W 080°07'0 0.0
2016-Jul-22 10:32N 26°04' W 080°07'0 0.0
2016-Jul-22 09:28N 26°04' W 080°07'0 0.0
2016-Jul-22 08:22N 26°04' W 080°07'0 0.0
2016-Jul-22 07:33N 26°04' W 080°07'0 0.0
2016-Jul-22 04:33N 26°04' W 080°07'0 0.0
2016-Jul-22 03:33N 26°04' W 080°07'0 0.0
2016-Jul-22 02:33N 26°04' W 080°07'0 0.3
2016-Jul-22 01:33N 26°04' W 080°07'0 0.1
2016-Jul-22 00:33N 26°04' W 080°07'0 0.0
2016-Jul-21 23:33N 26°04' W 080°07'0 0.0
2016-Jul-21 22:33N 26°04' W 080°07'0 0.0
2016-Jul-21 21:33N 26°04' W 080°07'0 0.0
2016-Jul-21 20:33N 26°04' W 080°07'0 0.0
2016-Jul-21 19:33N 26°04' W 080°07'0 0.3
2016-Jul-21 18:33N 26°04' W 080°07'0 0.3
2016-Jul-21 17:33N 26°04' W 080°07'0 0.0
2016-Jul-21 16:33N 26°04' W 080°07'0 0.0
2016-Jul-21 15:33N 26°04' W 080°07'0 0.0
2016-Jul-21 14:33N 26°04' W 080°07'0 0.0
2016-Jul-21 13:33N 26°04' W 080°07'0 0.0
2016-Jul-21 12:33N 26°04' W 080°07'0 0.0
2016-Jul-21 11:33N 26°04' W 080°07'0 0.0
2016-Jul-21 10:33N 26°04' W 080°07'0 0.0
2016-Jul-21 09:32N 26°04' W 080°07'0 0.0
2016-Jul-21 08:33N 26°04' W 080°07'0 0.0
2016-Jul-21 07:33N 26°04' W 080°07'2 2.0
2016-Jul-21 06:33N 26°06' W 080°06'1212.3
2016-Jul-21 05:33N 26°04' W 079°52'1313.2
2016-Jul-21 04:34N 25°52' W 079°47'4 3.7
2016-Jul-21 03:33N 25°53' W 079°50'  
Track history (hours):
 
Tides and Currents Weather Stations Pressure Air Temp Water Temp Dewpoint Dewpoint Depression Visibility Wind Speed Wind Dir Waves Ship Positions

K-storm

Last reported at 2016-Jul-29 16:24 UTC. Time now 2016-Jul-30 07:18 UTC.
Position N 25°43' W 079°42'.

Length 139 m; draft 6.2 m.

Type: Ship. MMSI: 305350000.

Date/timePositionNaut miles runAvg speedWind from/ knotsBaromVisibWave heightAir tempDewpointWater temp
2016-Jul-29 16:24N 25°43' W 079°42'1113.2
2016-Jul-29 15:33N 25°52' W 079°50'1313.0
2016-Jul-29 14:33N 26°01' W 079°59'7 6.5
2016-Jul-29 13:24N 26°04' W 080°07'0 0.0
2016-Jul-29 12:33N 26°04' W 080°07'0 0.0
2016-Jul-29 11:30N 26°04' W 080°07'0 0.0
2016-Jul-29 10:32N 26°04' W 080°07'0 0.0
2016-Jul-29 09:32N 26°04' W 080°07'0 0.0
2016-Jul-29 08:25N 26°04' W 080°07'0 0.0
2016-Jul-29 07:31N 26°04' W 080°07'0 0.0
2016-Jul-29 06:27N 26°04' W 080°07'0 0.2
2016-Jul-29 05:33N 26°04' W 080°07'0 0.0
2016-Jul-29 04:27N 26°04' W 080°07'0 0.0
2016-Jul-29 03:32N 26°04' W 080°07'0 0.0
2016-Jul-29 02:32N 26°04' W 080°07'0 0.0
2016-Jul-29 01:22N 26°04' W 080°07'0 0.0
2016-Jul-29 00:31N 26°04' W 080°07'0 0.0
2016-Jul-28 23:24N 26°04' W 080°07'0 0.0
2016-Jul-28 22:33N 26°04' W 080°07'0 0.0
2016-Jul-28 21:27N 26°04' W 080°07'0 0.0
2016-Jul-28 20:33N 26°04' W 080°07'0 0.3
2016-Jul-28 19:23N 26°04' W 080°07'0 0.0
2016-Jul-28 18:13N 26°04' W 080°07'0 0.0
2016-Jul-28 17:22N 26°04' W 080°07'0 0.0
2016-Jul-28 16:27N 26°04' W 080°07'0 0.0
2016-Jul-28 15:09N 26°04' W 080°07'0 0.0
2016-Jul-28 14:33N 26°04' W 080°07'0 0.0
2016-Jul-28 13:26N 26°04' W 080°07'0 0.0
2016-Jul-28 12:20N 26°04' W 080°07'0 0.0
2016-Jul-28 11:28N 26°04' W 080°07'0 0.0
2016-Jul-28 10:22N 26°04' W 080°07'0 0.0
2016-Jul-28 09:30N 26°04' W 080°07'0 0.0
2016-Jul-28 08:24N 26°04' W 080°07'0 0.2
2016-Jul-28 07:32N 26°04' W 080°07'0 0.0
2016-Jul-28 06:26N 26°04' W 080°07'0 0.0
2016-Jul-28 05:32N 26°04' W 080°07'0 0.0
2016-Jul-28 04:28N 26°04' W 080°07'0 0.0
2016-Jul-28 03:22N 26°04' W 080°07'0 0.0
2016-Jul-28 02:30N 26°04' W 080°07'0 0.0
2016-Jul-28 01:24N 26°04' W 080°07'0 0.1
2016-Jul-28 00:33N 26°04' W 080°07'5 4.9
2016-Jul-27 23:33N 26°05' W 080°02'9 9.0
2016-Jul-27 22:33N 25°60' W 079°54'1616.3
2016-Jul-27 21:33N 25°47' W 079°43'  
2016-Jul-22 14:24N 25°43' W 079°42'1113.3
2016-Jul-22 13:33N 25°52' W 079°50'1312.8
2016-Jul-22 12:33N 26°01' W 079°59'8 6.5
2016-Jul-22 11:23N 26°04' W 080°07'0 0.0
2016-Jul-22 10:32N 26°04' W 080°07'0 0.0
2016-Jul-22 09:28N 26°04' W 080°07'0 0.0
2016-Jul-22 08:22N 26°04' W 080°07'0 0.0
2016-Jul-22 07:33N 26°04' W 080°07'0 0.0
2016-Jul-22 04:33N 26°04' W 080°07'0 0.0
2016-Jul-22 03:33N 26°04' W 080°07'0 0.0
2016-Jul-22 02:33N 26°04' W 080°07'0 0.3
2016-Jul-22 01:33N 26°04' W 080°07'0 0.1
2016-Jul-22 00:33N 26°04' W 080°07'0 0.0
2016-Jul-21 23:33N 26°04' W 080°07'0 0.0
2016-Jul-21 22:33N 26°04' W 080°07'0 0.0
2016-Jul-21 21:33N 26°04' W 080°07'0 0.0
2016-Jul-21 20:33N 26°04' W 080°07'0 0.0
2016-Jul-21 19:33N 26°04' W 080°07'0 0.3
2016-Jul-21 18:33N 26°04' W 080°07'0 0.3
2016-Jul-21 17:33N 26°04' W 080°07'0 0.0
2016-Jul-21 16:33N 26°04' W 080°07'0 0.0
2016-Jul-21 15:33N 26°04' W 080°07'0 0.0
2016-Jul-21 14:33N 26°04' W 080°07'0 0.0
2016-Jul-21 13:33N 26°04' W 080°07'0 0.0
2016-Jul-21 12:33N 26°04' W 080°07'0 0.0
2016-Jul-21 11:33N 26°04' W 080°07'0 0.0
2016-Jul-21 10:33N 26°04' W 080°07'0 0.0
2016-Jul-21 09:32N 26°04' W 080°07'0 0.0
2016-Jul-21 08:33N 26°04' W 080°07'0 0.0
2016-Jul-21 07:33N 26°04' W 080°07'2 2.0
2016-Jul-21 06:33N 26°06' W 080°06'1212.3
2016-Jul-21 05:33N 26°04' W 079°52'1313.2
2016-Jul-21 04:34N 25°52' W 079°47'4 3.7
2016-Jul-21 03:33N 25°53' W 079°50'  

Dump ship's entire track history